Bakerville, South Dakota
Current Conditions -  °F | °C
As of 6:53 AM on Friday 19 Dec 2014 (Local Time) from KCUT Reporting Station
Clear Clear  
Wind Chill: -10°   Ceiling: Unl
Heat Index: -7°   Visibility: 10mi
Dew Point: -11°   Wind: 5mph
Humidity: 71%   Direction: 290°WNW
Pressure: 29.97"   Gusts: NA
Location:  43.6653°N, 103.766°W
Report Text: KCUT 191353Z AUTO 29004KT 10SM CLR M07/M11 A2997 RMK AO2 SLP191 T10671111
Loading
Personal Weather Stations






























Interactive Weather Map New forecast layout! Learn more

10-Day Weather Forecast

Advertisements
Track Severe Weather on mobile